Halkirk, Canada
Current Conditions -  °F | °C
As of 5:00 PM on Sunday 25 Jan 2015 (Local Time) from CYQF Reporting Station
Broken Clouds Broken Clouds  
Wind Chill: 42°   Ceiling: 11000
Heat Index: 45°   Visibility: 15mi
Dew Point: 30°   Wind: 5mph
Humidity: 57%   Direction: 260°W
Pressure: 29.84"   Gusts: NA
Location:  52.28°N, 112.15°W
Report Text: CYQF 260000Z 26004KT 15SM BKN110 BKN250 07/M01 A2984 RMK AC5CI1 SLP136
Loading
Personal Weather Stations






























Interactive Weather Map New forecast layout! Learn more

10-Day Weather Forecast

Advertisements
Track Severe Weather on mobile